Main page
METAR-TAF:

METAR-TAF

Airports :

Dundee Airport

Dundee, Scotland

latitude: 56-27N, longitude: 003-01W, elevation: 4 m

Current weather observation

The report was made 2 hours and 11 minutes ago, at 20:50 UTC
Wind 6 kt from the East, varying between East/Northeast and Southeast
Temperature 7°C
Humidity 87%
Pressure 1005 hPa
Visibility 10 km or more
Few clouds at a height of 2000 ft
Scattered clouds at a height of 4000 ft
heavy rain

METAR: EGPN 212050Z 10006KT 070V140 9999 +RA FEW020 SCT040 07/05 Q1005

Time: 23:01 (23:01 UTC)

Forecast

The report was made 6 hours and 5 minutes ago, at 16:56 UTC
Forecast valid from 21 at 18 UTC to 21 at 21 UTC
Wind 7 kt from the East
Visibility 10 km or more
Few clouds at a height of 2500 ft

TAF: EGPN 211656Z 2118/2121 10007KT 9999 FEW025

Weather observations and forecasts of more than 4000 airports (METAR and TAF reports).

The available stations are represented by yellow and red dots on the map.

Hover mouse over dot to see the name of the station.

Then click to see weather observations and forecasts.

To change the map : click on the green buttons with a black cross to zoom in, on the green button with a dash to zoom out, or on the green arrows for adjacent maps.


METAR-TAF: